This is the latest recevied weather packets stored in our database for station/object NC4M. If no packets are shown the sender has not sent any weather packets the latest 10 day(s).
| Time | Temp. | Humidity | Pressure | Rain* | Wind** | Luminosity | Snow |
|---|---|---|---|---|---|---|---|
| 1787798484 | 23.89° C | 79% | 1016.6 hPa | 0 mm | - | 0 W/m² | - |
| 1787798179 | 23.89° C | 79% | 1016.7 hPa | 0 mm | - | 0 W/m² | - |
| 1787797877 | 23.89° C | 78% | 1016.4 hPa | 0 mm | - | 0 W/m² | - |
| 1787797572 | 23.89° C | 79% | 1016.5 hPa | 0 mm | - | 0 W/m² | - |
| 1787797267 | 24.44° C | 78% | 1016.5 hPa | 0 mm | - | 0 W/m² | - |
| 1787796962 | 24.44° C | 76% | 1016.5 hPa | 0 mm | - | 0 W/m² | - |
| 1787796662 | 24.44° C | 76% | 1016.4 hPa | 0 mm | - | 0 W/m² | - |
| 1787796357 | 24.44° C | 80% | 1016.3 hPa | 0 mm | - | 0 W/m² | - |
| 1787796053 | 24.44° C | 77% | 1016.4 hPa | 0 mm | - | 0 W/m² | - |
| 1787795750 | 24.44° C | 76% | 1016.3 hPa | 0 mm | - | 0 W/m² | - |
| 1787795445 | 24.44° C | 76% | 1016.1 hPa | 0 mm | - | 0 W/m² | - |
| 1787795144 | 25° C | 75% | 1015.9 hPa | 0 mm | - | 0 W/m² | - |
| 1787794843 | 25° C | 78% | 1015.8 hPa | 0 mm | - | 0 W/m² | - |
| 1787794540 | 25° C | 77% | 1015.9 hPa | 0 mm | - | 0 W/m² | - |
| 1787794235 | 25° C | 78% | 1015.6 hPa | 0 mm | - | 0 W/m² | - |
| 1787793930 | 25° C | 73% | 1015.7 hPa | 0 mm | - | 0 W/m² | - |
| 1787793626 | 25° C | 75% | 1015.5 hPa | 0 mm | - | 0 W/m² | - |
| 1787793321 | 25° C | 71% | 1015.7 hPa | 0 mm | - | 0 W/m² | - |
| 1787793021 | 25.56° C | 73% | 1015.6 hPa | 0 mm | - | 0 W/m² | - |
| 1787792716 | 25.56° C | 76% | 1015.5 hPa | 0 mm | - | 0 W/m² | - |
| 1787792415 | 25.56° C | 71% | 1015.6 hPa | 0 mm | - | 0 W/m² | - |
| 1787792113 | 26.11° C | 68% | 1015.6 hPa | 0 mm | - | 1 W/m² | - |
| 1787791812 | 26.67° C | 68% | 1015.5 hPa | 0 mm | - | 1 W/m² | - |
| 1787791507 | 26.67° C | 66% | 1015.7 hPa | 0 mm | - | 2 W/m² | - |
| 1787791202 | 27.22° C | 67% | 1015.5 hPa | 0 mm | - | 5 W/m² | - |
* Rain latest hour (hover to see other rain measurements)
** Current wind speed in m/s (hover to see current wind gust speed)